createdAt,value
2018-10-09T00:01:25.133Z,14.03
2018-10-09T00:03:52.853Z,16.13
2018-10-09T00:06:20.875Z,16.57
2018-10-09T00:08:49.206Z,14.33
2018-10-09T00:11:16.970Z,19.17
2018-10-09T00:13:44.828Z,14.97
2018-10-09T00:16:12.515Z,17.27
2018-10-09T00:18:40.394Z,16.87
2018-10-09T00:21:08.199Z,17.57
2018-10-09T00:23:35.930Z,19.13
2018-10-09T00:26:04.281Z,18.37
2018-10-09T00:28:31.973Z,18.43
2018-10-09T00:30:59.839Z,18.63
2018-10-09T00:33:28.751Z,15.03
2018-10-09T00:35:56.952Z,18.77
2018-10-09T00:38:25.348Z,16.37
2018-10-09T00:40:57.043Z,17.00
2018-10-09T00:43:27.826Z,18.67
2018-10-09T00:45:57.480Z,19.30
2018-10-09T00:48:25.500Z,15.57
2018-10-09T00:50:54.820Z,17.20
2018-10-09T00:53:25.581Z,18.53
2018-10-09T00:55:55.997Z,17.07
2018-10-09T00:58:29.469Z,16.97
2018-10-09T01:00:59.032Z,16.47
2018-10-09T01:03:30.690Z,15.87
2018-10-09T01:06:01.861Z,19.00
2018-10-09T01:08:33.462Z,19.53
2018-10-09T01:11:01.825Z,17.27
2018-10-09T01:13:29.820Z,17.77
2018-10-09T01:15:57.549Z,21.87
2018-10-09T01:18:25.276Z,17.43
2018-10-09T01:20:53.045Z,18.37
2018-10-09T01:23:20.848Z,19.40
2018-10-09T01:25:48.826Z,21.30
2018-10-09T01:28:19.640Z,19.40
2018-10-09T01:30:49.193Z,18.97
2018-10-09T01:33:19.539Z,16.00
2018-10-09T01:35:52.655Z,23.43
2018-10-09T01:38:25.241Z,18.67
2018-10-09T01:40:54.794Z,19.53
2018-10-09T01:43:22.712Z,20.13
2018-10-09T01:45:50.506Z,17.33
2018-10-09T01:48:18.911Z,21.43
2018-10-09T01:50:49.449Z,19.00
2018-10-09T01:53:17.317Z,16.90
2018-10-09T01:55:45.381Z,17.07
2018-10-09T01:58:17.366Z,20.37
2018-10-09T02:00:45.714Z,21.33
2018-10-09T02:03:16.946Z,19.03
2018-10-09T02:05:48.372Z,21.27
2018-10-09T02:08:26.538Z,20.27
2018-10-09T02:10:56.350Z,23.87
2018-10-09T02:13:25.806Z,21.60
2018-10-09T02:15:56.206Z,24.07
2018-10-09T02:21:12.924Z,27.07
2018-10-09T02:23:43.466Z,22.73
2018-10-09T02:26:11.307Z,21.77
2018-10-09T02:28:39.129Z,23.93
2018-10-09T02:31:12.862Z,24.50
2018-10-09T02:33:45.277Z,24.80
2018-10-09T02:36:18.330Z,23.30
2018-10-09T02:38:48.856Z,21.90
2018-10-09T02:41:17.315Z,25.17
2018-10-09T02:43:47.088Z,22.30
2018-10-09T02:46:15.870Z,22.30
2018-10-09T02:48:48.474Z,20.30
2018-10-09T02:51:16.591Z,22.17
2018-10-09T02:53:44.562Z,21.07
2018-10-09T02:56:12.391Z,23.70
2018-10-09T02:58:40.279Z,25.43
2018-10-09T03:01:08.138Z,22.00
2018-10-09T03:03:35.980Z,20.23
2018-10-09T03:06:04.942Z,23.17
2018-10-09T03:08:32.948Z,24.43
2018-10-09T03:11:01.251Z,20.67
2018-10-09T03:13:29.123Z,21.20
2018-10-09T03:15:57.115Z,21.57
2018-10-09T03:18:24.951Z,25.33
2018-10-09T03:20:52.758Z,28.53
2018-10-09T03:23:20.737Z,24.17
2018-10-09T03:25:49.580Z,20.43
2018-10-09T03:28:17.614Z,21.83
2018-10-09T03:30:45.735Z,23.83
2018-10-09T03:33:14.168Z,26.63
2018-10-09T03:35:42.114Z,27.77
2018-10-09T03:38:09.861Z,28.30
2018-10-09T03:40:37.646Z,26.13
2018-10-09T03:43:06.165Z,25.10
2018-10-09T03:45:39.026Z,28.50
2018-10-09T03:48:10.164Z,26.77
2018-10-09T03:50:38.692Z,29.00
2018-10-09T03:53:08.517Z,29.13
2018-10-09T03:55:36.486Z,28.60
2018-10-09T03:58:04.835Z,26.50
2018-10-09T04:00:35.004Z,24.70
2018-10-09T04:03:03.126Z,27.00
2018-10-09T04:05:38.125Z,29.07
2018-10-09T04:08:11.033Z,28.17
2018-10-09T04:10:41.389Z,25.50
2018-10-09T04:13:10.973Z,28.63
2018-10-09T04:15:38.776Z,27.43
2018-10-09T04:18:06.785Z,25.17
2018-10-09T04:20:36.621Z,28.37
2018-10-09T04:23:04.340Z,29.67
2018-10-09T04:25:32.303Z,27.83
2018-10-09T04:28:01.475Z,30.20
2018-10-09T04:30:30.275Z,29.40
2018-10-09T04:32:58.491Z,28.90
2018-10-09T04:35:27.305Z,28.37
2018-10-09T04:37:56.754Z,28.70
2018-10-09T04:40:25.989Z,26.60
2018-10-09T04:42:55.209Z,32.07
2018-10-09T04:45:29.137Z,30.17
2018-10-09T04:48:02.363Z,30.70
2018-10-09T04:50:35.385Z,32.40
2018-10-09T04:53:06.209Z,31.43
2018-10-09T04:55:39.645Z,33.30
2018-10-09T04:58:09.944Z,32.17
2018-10-09T05:00:38.745Z,30.67
2018-10-09T05:03:08.716Z,32.70
2018-10-09T05:05:42.861Z,34.30
2018-10-09T05:08:11.902Z,30.77
2018-10-09T05:10:47.841Z,31.10
2018-10-09T05:13:17.797Z,33.97
2018-10-09T05:15:49.835Z,32.50
2018-10-09T05:18:18.950Z,39.40
2018-10-09T05:20:48.807Z,31.33
2018-10-09T05:23:21.478Z,29.17
2018-10-09T05:25:52.551Z,35.43
2018-10-09T05:28:21.435Z,32.78
2018-10-09T05:30:53.268Z,43.25
2018-10-09T05:33:22.679Z,32.07
2018-10-09T05:35:53.054Z,35.70
2018-10-09T05:38:23.817Z,34.00
2018-10-09T05:40:52.715Z,33.67
2018-10-09T05:43:21.884Z,37.57
2018-10-09T05:45:51.665Z,34.80
2018-10-09T05:48:21.017Z,34.47
2018-10-09T05:50:49.113Z,34.33
2018-10-09T05:53:19.136Z,32.00
2018-10-09T05:55:49.307Z,34.00
2018-10-09T05:58:19.314Z,29.17
2018-10-09T06:00:48.715Z,31.27
2018-10-09T06:03:17.878Z,34.03
2018-10-09T06:05:46.746Z,35.40
2018-10-09T06:08:14.712Z,34.83
2018-10-09T06:10:44.858Z,34.90
2018-10-09T06:13:14.095Z,31.80
2018-10-09T06:15:44.137Z,29.10
2018-10-09T06:18:12.726Z,32.47
2018-10-09T06:20:41.082Z,35.90
2018-10-09T06:23:13.092Z,35.20
2018-10-09T06:25:41.420Z,33.80
2018-10-09T06:28:11.079Z,35.53
2018-10-09T06:30:39.912Z,33.30
2018-10-09T06:33:08.277Z,28.83
2018-10-09T06:35:37.880Z,35.17
2018-10-09T06:38:06.376Z,32.27
2018-10-09T06:40:36.364Z,30.60
2018-10-09T06:43:09.946Z,35.13
2018-10-09T06:45:47.887Z,33.90
2018-10-09T06:48:17.628Z,34.97
2018-10-09T06:50:48.620Z,32.40
2018-10-09T06:53:18.150Z,30.73
2018-10-09T06:55:52.280Z,37.03
2018-10-09T06:58:27.764Z,29.80
2018-10-09T07:00:58.669Z,29.17
2018-10-09T07:03:29.583Z,25.00
2018-10-09T07:06:02.707Z,31.87
2018-10-09T07:08:31.844Z,27.40
2018-10-09T07:11:06.278Z,21.30
2018-10-09T07:13:39.461Z,23.37
2018-10-09T07:16:12.933Z,21.43
2018-10-09T07:18:45.152Z,20.50
2018-10-09T07:21:15.354Z,22.30
2018-10-09T07:23:46.144Z,27.97
2018-10-09T07:26:17.169Z,22.30
2018-10-09T07:28:47.572Z,22.07
2018-10-09T07:31:17.148Z,22.77
2018-10-09T07:33:54.255Z,24.30
2018-10-09T07:36:24.120Z,23.67
2018-10-09T07:38:55.577Z,27.57
2018-10-09T07:41:24.932Z,21.50
2018-10-09T07:43:54.528Z,26.90
2018-10-09T07:46:29.343Z,23.40
2018-10-09T07:48:57.947Z,23.83
2018-10-09T07:51:26.476Z,23.57
2018-10-09T07:53:55.493Z,23.83
2018-10-09T07:56:23.594Z,25.90
2018-10-09T07:58:56.692Z,23.93
2018-10-09T08:01:24.445Z,23.47
2018-10-09T08:03:52.803Z,26.93
2018-10-09T08:06:22.851Z,24.63
2018-10-09T08:08:51.197Z,22.70
2018-10-09T08:11:20.600Z,24.83
2018-10-09T08:13:49.826Z,20.57
2018-10-09T08:16:18.370Z,24.07
2018-10-09T08:18:46.562Z,21.57
2018-10-09T08:21:15.817Z,21.33
2018-10-09T08:23:45.316Z,23.53
2018-10-09T08:26:13.347Z,23.97
2018-10-09T08:28:43.063Z,25.43
2018-10-09T08:31:11.829Z,27.30
2018-10-09T08:33:39.997Z,21.23
2018-10-09T08:36:09.736Z,23.90
2018-10-09T08:38:37.765Z,26.87
2018-10-09T08:41:06.414Z,20.63
2018-10-09T08:43:35.196Z,20.87
2018-10-09T08:46:03.597Z,22.30
2018-10-09T08:48:31.743Z,23.50
2018-10-09T08:51:00.088Z,19.27
2018-10-09T08:53:29.089Z,20.43
2018-10-09T08:55:57.297Z,20.80
2018-10-09T08:58:27.813Z,21.37
2018-10-09T09:00:58.116Z,25.13
2018-10-09T09:03:27.893Z,22.27
2018-10-09T09:05:56.840Z,22.20
2018-10-09T09:08:25.047Z,21.57
2018-10-09T09:10:53.337Z,27.03
2018-10-09T09:13:21.862Z,26.77
2018-10-09T09:15:53.001Z,25.17
2018-10-09T09:18:21.181Z,25.03
2018-10-09T09:20:49.975Z,25.50
2018-10-09T09:23:19.933Z,24.93
2018-10-09T09:25:49.438Z,22.43
2018-10-09T09:28:19.491Z,20.93
2018-10-09T09:30:50.176Z,22.50
2018-10-09T09:33:21.067Z,24.07
2018-10-09T09:35:50.807Z,25.70
2018-10-09T09:38:22.671Z,30.70
2018-10-09T09:40:54.457Z,25.77
2018-10-09T09:43:31.821Z,24.60
2018-10-09T09:46:00.021Z,28.23
2018-10-09T09:48:28.143Z,25.37
2018-10-09T09:50:58.367Z,23.00
2018-10-09T09:53:27.909Z,30.47
2018-10-09T09:55:56.123Z,22.87
2018-10-09T09:58:24.762Z,25.37
2018-10-09T10:00:55.442Z,25.10
2018-10-09T10:03:23.438Z,24.00
2018-10-09T10:05:52.641Z,25.30
2018-10-09T10:08:22.648Z,26.47
2018-10-09T10:10:50.841Z,26.90
2018-10-09T10:13:21.353Z,29.60
2018-10-09T10:15:52.179Z,25.67
2018-10-09T10:18:21.396Z,23.57
2018-10-09T10:20:53.061Z,31.63
2018-10-09T10:23:30.772Z,28.77
2018-10-09T10:25:59.801Z,25.90
2018-10-09T10:28:29.515Z,25.70
2018-10-09T10:31:15.003Z,29.23
2018-10-09T10:33:44.058Z,28.13
2018-10-09T10:36:13.359Z,26.17
2018-10-09T10:38:41.687Z,27.33
2018-10-09T10:41:24.656Z,29.03
2018-10-09T10:43:54.139Z,28.37
2018-10-09T10:46:32.088Z,28.77
2018-10-09T10:49:07.171Z,30.07
2018-10-09T10:51:53.272Z,31.60
2018-10-09T10:54:36.753Z,32.75
2018-10-09T10:57:16.628Z,27.80
2018-10-09T10:59:47.949Z,32.03
2018-10-09T11:02:19.326Z,27.77
2018-10-09T11:07:16.683Z,30.03
2018-10-09T12:06:43.756Z,23.60
2018-10-09T12:09:13.525Z,22.90
2018-10-09T12:11:42.627Z,24.93
2018-10-09T12:14:19.400Z,25.47
2018-10-09T12:16:50.412Z,24.77
2018-10-09T12:19:20.092Z,26.67
2018-10-09T12:21:54.367Z,21.43
2018-10-09T12:24:30.070Z,21.10
2018-10-09T12:26:58.984Z,22.37
2018-10-09T12:29:29.292Z,23.00
2018-10-09T12:32:02.164Z,20.87
2018-10-09T12:34:41.680Z,22.20
2018-10-09T12:37:15.993Z,22.77
2018-10-09T12:39:45.940Z,20.67
2018-10-09T12:42:16.048Z,20.40
2018-10-09T12:44:47.306Z,19.23
2018-10-09T12:47:18.623Z,21.37
2018-10-09T12:49:48.817Z,21.40
2018-10-09T12:52:26.929Z,18.03
2018-10-09T12:54:55.978Z,19.47
2018-10-09T12:57:30.788Z,20.77
2018-10-09T13:02:56.721Z,19.80
2018-10-09T13:05:30.798Z,16.80
2018-10-09T13:08:01.269Z,21.70
2018-10-09T13:10:31.400Z,18.10
2018-10-09T13:18:22.472Z,22.00
2018-10-09T13:20:51.357Z,23.83
2018-10-09T13:23:25.731Z,19.63
2018-10-09T13:25:59.899Z,21.17
2018-10-09T13:28:36.041Z,15.37
2018-10-09T13:31:05.546Z,16.90
2018-10-09T13:33:38.056Z,16.03
2018-10-09T13:36:09.679Z,17.17
2018-10-09T13:38:38.904Z,17.50
2018-10-09T13:41:09.769Z,19.13
2018-10-09T13:43:40.963Z,15.70
2018-10-09T13:46:09.745Z,13.53
2018-10-09T13:48:39.059Z,13.07
2018-10-09T13:51:21.777Z,12.82
2018-10-09T13:53:56.464Z,12.57
2018-10-09T13:56:29.763Z,14.73
2018-10-09T13:58:59.023Z,16.77
2018-10-09T14:01:37.519Z,13.43
2018-10-09T14:04:07.464Z,17.03
2018-10-09T14:06:38.829Z,14.17
2018-10-09T14:09:14.402Z,14.80
2018-10-09T14:11:45.363Z,13.90
2018-10-09T14:14:14.295Z,16.13
2018-10-09T14:16:42.359Z,16.30
2018-10-09T14:19:12.969Z,18.93
2018-10-09T14:21:41.476Z,12.97
2018-10-09T14:24:14.372Z,17.07
2018-10-09T14:26:51.649Z,14.53
2018-10-09T14:29:20.705Z,17.30
2018-10-09T14:31:53.976Z,15.70
2018-10-09T14:34:25.100Z,15.70
2018-10-09T14:36:55.858Z,16.17
2018-10-09T14:39:25.743Z,19.27
2018-10-09T14:41:55.089Z,18.10
2018-10-09T14:47:10.679Z,19.27
2018-10-09T14:49:40.345Z,18.27
2018-10-09T14:52:18.742Z,18.90
2018-10-09T14:54:50.474Z,18.13
2018-10-09T14:57:30.033Z,19.10
2018-10-09T14:59:59.708Z,18.30
2018-10-09T15:02:30.790Z,17.33
2018-10-09T15:05:03.284Z,20.23
2018-10-09T15:07:33.077Z,20.80
2018-10-09T15:12:49.691Z,23.50
2018-10-09T15:15:17.871Z,25.03
2018-10-09T15:17:47.598Z,20.97
2018-10-09T15:20:16.156Z,18.57
2018-10-09T15:22:50.072Z,22.50
2018-10-09T15:25:18.675Z,20.57
2018-10-09T15:27:54.123Z,22.73
2018-10-09T15:30:24.437Z,22.77
2018-10-09T15:32:57.695Z,20.60
2018-10-09T15:35:33.558Z,21.77
2018-10-09T15:38:09.689Z,20.20
2018-10-09T15:40:39.839Z,28.90
2018-10-09T15:43:14.705Z,23.37
2018-10-09T15:45:45.562Z,25.13
2018-10-09T15:48:17.337Z,27.33
2018-10-09T15:50:57.052Z,19.03
2018-10-09T15:53:26.127Z,22.13
2018-10-09T15:55:54.527Z,26.93
2018-10-09T15:58:26.855Z,21.40
2018-10-09T16:00:59.957Z,22.23
2018-10-09T16:03:31.053Z,23.93
2018-10-09T16:05:59.738Z,28.67
2018-10-09T16:08:28.271Z,29.83
2018-10-09T16:10:57.707Z,25.60
2018-10-09T16:13:32.572Z,24.20
2018-10-09T16:16:16.359Z,24.97
2018-10-09T16:18:47.892Z,19.33
2018-10-09T16:21:23.114Z,26.27
2018-10-09T17:09:11.216Z,18.90
2018-10-09T17:11:40.700Z,23.97
2018-10-09T17:14:08.756Z,27.10
2018-10-09T17:16:36.860Z,20.77
2018-10-09T17:19:04.794Z,22.80
2018-10-09T17:21:32.773Z,24.80
2018-10-09T17:24:00.842Z,21.63
2018-10-09T17:26:31.625Z,21.50
2018-10-09T17:28:59.874Z,18.50
2018-10-09T17:31:28.053Z,20.03
2018-10-09T17:33:56.025Z,25.93
2018-10-09T17:36:24.026Z,21.13
2018-10-09T17:38:51.714Z,22.27
2018-10-09T17:41:19.449Z,19.80
2018-10-09T17:43:47.124Z,18.70
2018-10-09T17:46:14.832Z,17.40
2018-10-09T17:48:43.208Z,14.67
2018-10-09T17:51:11.478Z,16.63
2018-10-09T17:53:40.498Z,15.80
2018-10-09T17:56:09.776Z,15.63
2018-10-09T17:58:38.877Z,18.40
2018-10-09T18:01:13.178Z,20.57
2018-10-09T18:03:44.814Z,20.50
2018-10-09T18:06:15.386Z,15.73
2018-10-09T18:08:50.329Z,14.70
2018-10-09T18:11:20.813Z,15.27
2018-10-09T18:13:51.999Z,17.53
2018-10-09T18:16:23.313Z,17.63
2018-10-09T18:18:55.202Z,15.57
2018-10-09T18:21:25.622Z,21.60
2018-10-09T18:23:55.105Z,20.80
2018-10-09T18:26:24.151Z,20.97
2018-10-09T18:31:43.575Z,17.43
2018-10-09T18:34:16.334Z,19.03
2018-10-09T18:36:55.297Z,19.43
2018-10-09T18:42:14.001Z,16.97
2018-10-09T18:47:35.424Z,23.77
2018-10-09T18:53:00.092Z,22.50
2018-10-09T18:55:44.434Z,20.37
2018-10-09T19:00:44.900Z,22.73
2018-10-09T19:03:17.508Z,17.90
2018-10-09T19:05:49.169Z,20.93
2018-10-09T19:08:25.372Z,21.80
2018-10-09T19:10:54.258Z,18.37
2018-10-09T19:13:26.282Z,19.00
2018-10-09T19:15:54.648Z,18.60
2018-10-09T19:18:24.329Z,20.37
2018-10-09T19:20:54.777Z,22.27
2018-10-09T19:23:26.777Z,16.77
2018-10-09T19:25:56.239Z,25.70
2018-10-09T19:28:24.724Z,19.23
2018-10-09T19:30:55.327Z,22.47
2018-10-09T19:33:26.169Z,25.47
2018-10-09T19:35:54.658Z,19.30
2018-10-09T19:38:24.676Z,20.70
2018-10-09T19:40:57.159Z,21.43
2018-10-09T19:43:27.450Z,22.97
2018-10-09T19:45:57.272Z,19.13
2018-10-09T19:48:26.001Z,26.60
2018-10-09T19:50:57.425Z,23.73
2018-10-09T19:53:27.410Z,24.50
2018-10-09T19:55:57.185Z,27.00
2018-10-09T19:58:30.021Z,27.33
2018-10-09T20:00:58.661Z,26.23
2018-10-09T20:03:30.326Z,32.40
2018-10-09T20:05:58.899Z,25.77
2018-10-09T20:08:29.405Z,24.93
2018-10-09T20:10:59.569Z,26.10
2018-10-09T20:13:29.527Z,23.57
2018-10-09T20:15:59.604Z,24.23
2018-10-09T20:18:31.107Z,19.47
2018-10-09T20:21:00.741Z,24.27
2018-10-09T20:23:29.764Z,22.20
2018-10-09T20:26:00.540Z,26.00
2018-10-09T20:28:29.302Z,22.83
2018-10-09T20:31:04.337Z,25.43
2018-10-09T20:33:33.018Z,29.23
2018-10-09T20:36:03.296Z,25.97
2018-10-09T20:38:32.226Z,22.50
2018-10-09T20:41:04.005Z,26.10
2018-10-09T20:43:34.171Z,25.67
2018-10-09T20:46:03.786Z,25.50
2018-10-09T20:48:36.634Z,28.73
2018-10-09T20:51:08.969Z,30.33
2018-10-09T20:53:39.950Z,29.37
2018-10-09T20:56:09.983Z,36.43
2018-10-09T20:58:40.090Z,34.17
2018-10-09T21:01:10.828Z,35.63
2018-10-09T21:03:44.524Z,36.33
2018-10-09T21:06:16.267Z,33.37
2018-10-09T21:08:49.591Z,35.87
2018-10-09T21:11:24.066Z,38.57
2018-10-09T21:13:54.948Z,35.27
2018-10-09T21:16:24.559Z,30.13
2018-10-09T21:18:55.932Z,31.47
2018-10-09T21:21:25.782Z,31.83
2018-10-09T21:23:59.834Z,31.33
2018-10-09T21:26:30.638Z,33.90
2018-10-09T21:29:00.679Z,31.50
2018-10-09T21:31:33.031Z,31.43
2018-10-09T21:34:02.032Z,27.50
2018-10-09T21:36:32.168Z,30.90
2018-10-09T21:39:02.970Z,33.43
2018-10-09T21:41:32.862Z,34.13
2018-10-09T21:44:06.278Z,28.60
2018-10-09T21:46:37.064Z,32.33
2018-10-09T21:49:06.446Z,32.20
2018-10-09T21:51:35.599Z,36.73
2018-10-09T21:56:48.637Z,41.33
2018-10-09T21:59:17.792Z,39.67
2018-10-09T22:01:46.879Z,36.47
2018-10-09T22:04:16.494Z,34.70
2018-10-09T22:06:47.907Z,34.70
2018-10-09T22:09:18.331Z,36.40
2018-10-09T22:11:47.145Z,33.63
2018-10-09T22:14:16.646Z,32.77
2018-10-09T22:16:45.998Z,31.37
2018-10-09T22:19:14.642Z,36.67
2018-10-09T22:21:46.879Z,35.37
2018-10-09T22:24:15.861Z,41.33
2018-10-09T22:26:44.416Z,41.47
2018-10-09T22:29:15.019Z,34.47
2018-10-09T22:31:45.329Z,35.80
2018-10-09T22:34:15.242Z,35.07
2018-10-09T22:36:47.586Z,33.30
2018-10-09T22:39:16.942Z,34.20
2018-10-09T22:41:48.196Z,33.30
2018-10-09T22:44:17.884Z,29.13
2018-10-09T22:46:47.079Z,33.00
2018-10-09T22:49:15.720Z,41.48
2018-10-09T22:51:45.350Z,40.30
2018-10-09T22:54:21.639Z,45.13
2018-10-09T22:56:53.615Z,46.47
2018-10-09T22:59:23.261Z,49.47
2018-10-09T23:01:59.461Z,41.87
2018-10-09T23:04:28.984Z,43.87
2018-10-09T23:06:58.053Z,44.73
2018-10-09T23:09:28.258Z,39.47
2018-10-09T23:11:56.826Z,44.30
2018-10-09T23:14:26.073Z,44.10
2018-10-09T23:16:57.141Z,49.30
2018-10-09T23:19:30.974Z,46.43
2018-10-09T23:22:00.174Z,53.73
2018-10-09T23:24:29.101Z,53.00
2018-10-09T23:27:07.815Z,57.07
2018-10-09T23:29:50.603Z,44.20
2018-10-09T23:32:20.007Z,52.40
2018-10-09T23:34:48.633Z,57.00
2018-10-09T23:37:18.865Z,47.10
2018-10-09T23:39:52.308Z,40.27
2018-10-09T23:42:22.320Z,39.33
2018-10-09T23:44:53.612Z,38.37
2018-10-09T23:47:23.750Z,35.17
2018-10-09T23:49:53.141Z,33.13
2018-10-09T23:52:22.425Z,36.87
2018-10-09T23:54:52.880Z,33.53
2018-10-09T23:57:27.022Z,26.70
2018-10-09T23:59:59.475Z,36.53
